createdAt,value
2023-03-16T06:19:58.556Z,11.38
2023-03-16T06:22:36.423Z,11.38
2023-03-16T06:25:04.385Z,11.38
2023-03-16T06:27:32.148Z,11.43
2023-03-16T06:29:59.720Z,11.40
2023-03-16T06:32:26.630Z,11.47
2023-03-16T06:34:53.550Z,11.45
2023-03-16T06:37:20.368Z,11.47
2023-03-16T06:39:47.260Z,11.46
2023-03-16T06:42:14.126Z,11.47
2023-03-16T06:44:41.589Z,11.51
2023-03-16T06:47:09.077Z,11.43
2023-03-16T06:49:36.044Z,11.46
2023-03-16T06:52:03.552Z,11.36
2023-03-16T06:54:32.622Z,11.45
2023-03-16T06:56:59.500Z,11.49
2023-03-16T06:59:26.353Z,11.48
2023-03-16T07:01:53.223Z,11.52
2023-03-16T07:04:20.090Z,11.56
2023-03-16T07:06:46.980Z,11.51
2023-03-16T07:09:13.911Z,11.55
2023-03-16T07:11:41.363Z,11.57
2023-03-16T07:14:08.184Z,11.56
2023-03-16T07:16:35.410Z,11.58
2023-03-16T07:19:02.389Z,11.58
2023-03-16T07:21:29.950Z,11.58
2023-03-16T07:23:56.777Z,11.59
2023-03-16T07:26:23.853Z,11.61
2023-03-16T07:28:50.639Z,11.59
2023-03-16T07:31:17.522Z,11.58
2023-03-16T07:33:44.556Z,11.60
2023-03-16T07:36:11.822Z,11.65
2023-03-16T07:38:38.716Z,11.67
2023-03-16T07:41:05.721Z,11.71
2023-03-16T07:43:32.671Z,11.69
2023-03-16T07:46:00.018Z,11.66
2023-03-16T07:48:26.878Z,11.66
2023-03-16T07:50:54.497Z,11.70
2023-03-16T07:53:21.331Z,11.72
2023-03-16T07:55:48.197Z,11.71
2023-03-16T07:58:15.147Z,11.71
2023-03-16T08:00:42.767Z,11.74
2023-03-16T08:03:09.787Z,11.72
2023-03-16T08:05:36.683Z,11.73
2023-03-16T08:08:03.499Z,11.74
2023-03-16T08:10:31.829Z,11.75
2023-03-16T08:12:59.080Z,11.78
2023-03-16T08:15:25.962Z,11.81
2023-03-16T08:17:52.889Z,11.85
2023-03-16T08:20:20.329Z,11.87
2023-03-16T08:22:47.254Z,11.92
2023-03-16T08:25:14.998Z,11.95
2023-03-16T08:27:43.267Z,12.01
2023-03-16T08:30:28.679Z,12.04
2023-03-16T08:32:55.750Z,12.06
2023-03-16T08:35:23.303Z,12.08
2023-03-16T08:37:50.609Z,12.11
2023-03-16T08:40:18.848Z,12.13
2023-03-16T08:42:45.972Z,12.14
2023-03-16T08:45:14.325Z,12.16
2023-03-16T08:47:41.906Z,12.17
2023-03-16T08:50:10.893Z,12.20
2023-03-16T08:52:37.756Z,12.21
2023-03-16T08:55:05.911Z,12.24
2023-03-16T08:57:33.917Z,12.26
2023-03-16T09:00:02.108Z,12.30
2023-03-16T09:02:29.098Z,12.31
2023-03-16T09:04:56.480Z,12.32
2023-03-16T09:07:23.612Z,12.34
2023-03-16T09:09:51.311Z,12.39
2023-03-16T09:12:18.206Z,12.41
2023-03-16T09:14:46.130Z,12.45
2023-03-16T09:17:12.973Z,12.49
2023-03-16T09:20:03.112Z,12.50
2023-03-16T09:22:35.720Z,12.56
2023-03-16T09:25:02.778Z,12.59
2023-03-16T09:27:30.662Z,12.63
2023-03-16T09:30:02.963Z,12.67
2023-03-16T09:32:30.905Z,12.71
2023-03-16T09:34:58.139Z,12.76
2023-03-16T09:37:26.198Z,12.79
2023-03-16T09:39:57.958Z,12.83
2023-03-16T09:42:58.295Z,12.84
2023-03-16T09:45:58.620Z,12.84
2023-03-16T09:48:27.523Z,12.86
2023-03-16T09:50:55.067Z,12.84
2023-03-16T09:53:34.617Z,12.85
2023-03-16T09:56:05.425Z,12.84
2023-03-16T09:58:33.161Z,12.87
2023-03-16T10:02:04.236Z,12.87
2023-03-16T10:05:25.626Z,12.92
2023-03-16T10:08:03.611Z,12.94
2023-03-16T10:10:56.529Z,12.97
2023-03-16T10:13:48.651Z,12.99
2023-03-16T10:16:21.318Z,13.00
2023-03-16T10:19:20.132Z,13.02
2023-03-16T10:22:00.047Z,13.01
2023-03-16T10:25:03.368Z,13.02
2023-03-16T10:27:32.623Z,13.01
2023-03-16T10:30:01.780Z,13.03
2023-03-16T10:32:34.652Z,13.03
2023-03-16T10:35:16.020Z,13.04
2023-03-16T10:37:42.940Z,13.05
2023-03-16T10:40:13.100Z,13.08
2023-03-16T10:42:40.521Z,13.10
2023-03-16T10:45:44.285Z,13.12
2023-03-16T10:48:17.676Z,13.15
2023-03-16T10:50:49.831Z,13.19
2023-03-16T10:53:20.427Z,13.24
2023-03-16T10:55:48.449Z,13.26
2023-03-16T10:58:26.957Z,13.29
2023-03-16T11:00:55.227Z,13.33
2023-03-16T11:03:27.733Z,13.39
2023-03-16T11:06:02.838Z,13.43
2023-03-16T11:08:48.853Z,13.45
2023-03-16T11:11:27.924Z,13.46
2023-03-16T11:13:58.163Z,13.49
2023-03-16T11:17:11.260Z,13.52
2023-03-16T11:19:41.829Z,13.55
2023-03-16T11:22:20.127Z,13.59
2023-03-16T11:24:54.313Z,13.61
2023-03-16T11:27:24.865Z,13.65
2023-03-16T11:30:11.483Z,13.69
2023-03-16T11:32:40.434Z,13.74
2023-03-16T11:35:35.104Z,13.78
2023-03-16T11:38:05.083Z,13.83
2023-03-16T11:40:33.386Z,13.86
2023-03-16T11:43:12.417Z,13.86
2023-03-16T11:45:48.533Z,13.91
2023-03-16T11:48:36.711Z,13.92
2023-03-16T11:51:33.548Z,13.92
2023-03-16T11:54:26.383Z,13.93
2023-03-16T11:57:00.320Z,13.91
2023-03-16T12:00:01.014Z,13.90
2023-03-16T12:02:49.875Z,13.87
2023-03-16T12:05:49.833Z,13.86
2023-03-16T12:08:48.453Z,13.85
2023-03-16T12:11:40.284Z,13.86
2023-03-16T12:14:16.620Z,13.88
2023-03-16T12:16:53.209Z,13.90
2023-03-16T12:19:27.189Z,13.89
2023-03-16T12:22:02.459Z,13.91
2023-03-16T12:24:47.192Z,13.93
2023-03-16T12:27:39.649Z,13.96
2023-03-16T12:30:26.730Z,13.96
2023-03-16T12:33:09.253Z,13.94
2023-03-16T12:35:57.292Z,13.92
2023-03-16T12:38:46.022Z,13.91
2023-03-16T12:41:43.223Z,13.89
2023-03-16T12:44:19.498Z,13.88
2023-03-16T12:46:56.723Z,13.84
2023-03-16T12:49:25.301Z,13.83
2023-03-16T12:52:04.792Z,13.82
2023-03-16T12:54:31.746Z,13.82
2023-03-16T12:57:04.785Z,13.82
2023-03-16T12:59:43.544Z,13.82
2023-03-16T13:02:16.729Z,13.82
2023-03-16T13:04:46.038Z,13.82
2023-03-16T13:07:22.900Z,13.82
2023-03-16T13:10:04.473Z,13.80
2023-03-16T13:12:33.066Z,13.81
2023-03-16T13:15:00.806Z,13.81
2023-03-16T13:17:33.046Z,13.81
2023-03-16T13:20:10.275Z,13.79
2023-03-16T13:22:50.686Z,13.78
2023-03-16T13:25:25.847Z,13.78
2023-03-16T13:27:56.012Z,13.77
2023-03-16T13:30:30.394Z,13.76
2023-03-16T13:33:29.609Z,13.74
2023-03-16T13:35:58.204Z,13.72
2023-03-16T13:38:31.817Z,13.72
2023-03-16T13:41:05.002Z,13.72
2023-03-16T13:43:36.449Z,13.72
2023-03-16T13:46:15.530Z,13.72
2023-03-16T13:48:43.259Z,13.72
2023-03-16T13:51:21.323Z,13.73
2023-03-16T13:53:51.172Z,13.71
2023-03-16T13:56:23.186Z,13.73
2023-03-16T13:58:52.819Z,13.72
2023-03-16T14:01:33.085Z,13.73
2023-03-16T14:04:10.103Z,13.73
2023-03-16T14:06:38.616Z,13.72
2023-03-16T14:09:18.205Z,13.72
2023-03-16T14:11:48.866Z,13.73
2023-03-16T14:14:20.939Z,13.74
2023-03-16T14:16:49.320Z,13.74
2023-03-16T14:19:26.650Z,13.75
2023-03-16T14:21:55.292Z,13.75
2023-03-16T14:24:37.812Z,13.76
2023-03-16T14:27:30.128Z,13.75
2023-03-16T14:30:01.729Z,13.75
2023-03-16T14:32:33.916Z,13.74
2023-03-16T14:35:10.616Z,13.73
2023-03-16T14:37:39.401Z,13.73
2023-03-16T14:40:22.316Z,13.71
2023-03-16T14:42:54.436Z,13.70
2023-03-16T14:45:23.386Z,13.70
2023-03-16T14:47:54.190Z,13.69
2023-03-16T14:50:26.640Z,13.69
2023-03-16T14:52:56.533Z,13.69
2023-03-16T14:55:25.380Z,13.69
2023-03-16T14:57:53.492Z,13.69
2023-03-16T15:00:22.223Z,13.68
2023-03-16T15:02:59.863Z,13.68
2023-03-16T15:05:47.944Z,13.66
2023-03-16T15:08:17.465Z,13.67
2023-03-16T15:10:45.105Z,13.64
2023-03-16T15:13:34.838Z,13.63
2023-03-16T15:16:04.686Z,13.63
2023-03-16T15:18:33.640Z,13.62
2023-03-16T15:21:03.020Z,13.62
2023-03-16T15:23:31.153Z,13.61
2023-03-16T15:26:03.029Z,13.61
2023-03-16T15:28:29.934Z,13.60
2023-03-16T15:31:01.349Z,13.61
2023-03-16T15:33:28.638Z,13.60
2023-03-16T15:36:01.198Z,13.61
2023-03-16T15:38:34.855Z,13.59
2023-03-16T15:41:02.210Z,13.59
2023-03-16T15:43:30.330Z,13.58
2023-03-16T15:45:59.001Z,13.57
2023-03-16T15:48:26.032Z,13.56
2023-03-16T15:51:08.660Z,13.56
2023-03-16T15:53:41.025Z,13.55
2023-03-16T15:56:10.480Z,13.54
2023-03-16T15:58:38.365Z,13.54
2023-03-16T16:01:07.004Z,13.52
2023-03-16T16:03:34.148Z,13.51
2023-03-16T16:06:01.319Z,13.50
2023-03-16T16:08:28.231Z,13.50
2023-03-16T16:10:55.857Z,13.51
2023-03-16T16:13:43.007Z,13.50
2023-03-16T16:16:16.970Z,13.49
2023-03-16T16:18:44.305Z,13.49
2023-03-16T16:21:32.740Z,13.49
2023-03-16T16:24:01.445Z,13.49
2023-03-16T16:26:49.014Z,13.47
2023-03-16T16:29:23.693Z,13.46
2023-03-16T16:31:51.909Z,13.45
2023-03-16T16:34:27.412Z,13.46
2023-03-16T16:36:55.309Z,13.48
2023-03-16T16:39:22.489Z,13.47
2023-03-16T16:41:51.975Z,13.46
2023-03-16T16:44:21.598Z,13.45
2023-03-16T16:46:50.484Z,13.44
2023-03-16T16:49:24.225Z,13.45
2023-03-16T16:51:52.572Z,13.45
2023-03-16T16:54:37.612Z,13.44
2023-03-16T16:57:24.061Z,13.45
2023-03-16T16:59:52.314Z,13.44
2023-03-16T17:02:38.793Z,13.42
2023-03-16T17:05:08.980Z,13.42
2023-03-16T17:07:36.719Z,13.40
2023-03-16T17:10:04.838Z,13.39
2023-03-16T17:12:32.977Z,13.39
2023-03-16T17:15:00.597Z,13.38
2023-03-16T17:17:27.584Z,13.39
2023-03-16T17:19:54.373Z,13.38
2023-03-16T17:22:24.860Z,13.38
2023-03-16T17:24:53.384Z,13.37
2023-03-16T17:27:27.950Z,13.36
2023-03-16T17:29:55.472Z,13.36
2023-03-16T17:32:22.994Z,13.34
2023-03-16T17:34:51.054Z,13.35
2023-03-16T17:37:20.164Z,13.33
2023-03-16T17:39:47.061Z,13.34
2023-03-16T17:42:17.801Z,13.32
2023-03-16T17:44:47.395Z,13.32
2023-03-16T17:47:21.624Z,13.30
2023-03-16T17:49:49.207Z,13.30
2023-03-16T17:52:26.536Z,13.29
2023-03-16T17:54:54.268Z,13.28
2023-03-16T17:57:21.120Z,13.27
2023-03-16T17:59:48.052Z,13.26
2023-03-16T18:02:38.923Z,13.26
2023-03-16T18:05:09.791Z,13.25
2023-03-16T18:07:36.681Z,13.25
2023-03-16T18:10:03.522Z,13.25
2023-03-16T18:12:30.692Z,13.25
2023-03-16T18:14:58.910Z,13.25
2023-03-16T18:17:33.052Z,13.23
2023-03-16T18:20:00.555Z,13.23
2023-03-16T18:22:28.112Z,13.23
2023-03-16T18:24:55.418Z,13.21
2023-03-16T18:27:22.668Z,13.21
2023-03-16T18:29:49.881Z,13.20
2023-03-16T18:32:23.820Z,13.21
2023-03-16T18:34:51.945Z,13.21
2023-03-16T18:37:28.080Z,13.20
2023-03-16T18:39:55.210Z,13.21
2023-03-16T18:42:27.788Z,13.20
2023-03-16T18:44:54.777Z,13.21
2023-03-16T18:47:24.690Z,13.20
2023-03-16T18:49:54.234Z,13.21
2023-03-16T18:52:26.237Z,13.19
2023-03-16T18:54:53.457Z,13.18
2023-03-16T18:57:28.305Z,13.18
2023-03-16T18:59:55.535Z,13.20
2023-03-16T19:02:33.872Z,13.19
2023-03-16T19:05:03.249Z,13.20
2023-03-16T19:07:36.054Z,13.19
2023-03-16T19:10:08.696Z,13.18
2023-03-16T19:12:35.541Z,13.17
2023-03-16T19:15:02.350Z,13.18
2023-03-16T19:17:29.203Z,13.17
2023-03-16T19:19:56.104Z,13.17
2023-03-16T19:22:24.061Z,13.17
2023-03-16T19:24:53.315Z,13.17
2023-03-16T19:27:22.106Z,13.16
2023-03-16T19:29:51.941Z,13.17
2023-03-16T19:32:20.592Z,13.17
2023-03-16T19:34:47.442Z,13.15
2023-03-16T19:37:15.067Z,13.18
2023-03-16T19:39:45.177Z,13.17
2023-03-16T19:42:25.974Z,13.17
2023-03-16T19:44:52.893Z,13.16
2023-03-16T19:47:31.371Z,13.15
2023-03-16T19:49:59.220Z,13.17
2023-03-16T19:52:28.361Z,13.16
2023-03-16T19:54:55.226Z,13.17
2023-03-16T19:57:22.280Z,13.16
